sensor_id;sensor_type;location;lat;lon;timestamp;P1;durP1;ratioP1;P2;durP2;ratioP2
47796;SDS011;33558;50.922;14.068;2022-09-01T00:01:29;3.97;;;2.60;;
47796;SDS011;33558;50.922;14.068;2022-09-01T00:03:56;4.50;;;2.83;;
47796;SDS011;33558;50.922;14.068;2022-09-01T00:06:29;3.17;;;2.65;;
47796;SDS011;33558;50.922;14.068;2022-09-01T00:08:58;4.38;;;2.53;;
47796;SDS011;33558;50.922;14.068;2022-09-01T00:11:26;4.78;;;2.80;;
47796;SDS011;33558;50.922;14.068;2022-09-01T00:13:54;4.88;;;3.05;;
47796;SDS011;33558;50.922;14.068;2022-09-01T00:16:21;6.72;;;2.97;;
47796;SDS011;33558;50.922;14.068;2022-09-01T00:18:49;4.30;;;2.63;;
47796;SDS011;33558;50.922;14.068;2022-09-01T00:21:20;7.72;;;3.05;;
47796;SDS011;33558;50.922;14.068;2022-09-01T00:23:49;5.85;;;2.83;;
47796;SDS011;33558;50.922;14.068;2022-09-01T00:26:16;4.10;;;2.80;;
47796;SDS011;33558;50.922;14.068;2022-09-01T00:28:43;3.78;;;2.50;;
47796;SDS011;33558;50.922;14.068;2022-09-01T00:31:10;3.30;;;2.50;;
47796;SDS011;33558;50.922;14.068;2022-09-01T00:33:37;3.72;;;2.65;;
47796;SDS011;33558;50.922;14.068;2022-09-01T00:36:04;4.35;;;3.00;;
47796;SDS011;33558;50.922;14.068;2022-09-01T00:38:31;6.18;;;2.92;;
47796;SDS011;33558;50.922;14.068;2022-09-01T00:40:59;3.90;;;2.50;;
47796;SDS011;33558;50.922;14.068;2022-09-01T00:43:35;6.63;;;2.65;;
47796;SDS011;33558;50.922;14.068;2022-09-01T00:46:03;4.30;;;2.70;;
47796;SDS011;33558;50.922;14.068;2022-09-01T00:48:30;5.00;;;2.53;;
47796;SDS011;33558;50.922;14.068;2022-09-01T00:50:57;6.63;;;3.13;;
47796;SDS011;33558;50.922;14.068;2022-09-01T00:53:24;5.50;;;2.90;;
47796;SDS011;33558;50.922;14.068;2022-09-01T00:55:50;3.75;;;3.00;;
47796;SDS011;33558;50.922;14.068;2022-09-01T00:58:18;3.47;;;2.47;;
47796;SDS011;33558;50.922;14.068;2022-09-01T01:00:46;3.38;;;3.08;;
47796;SDS011;33558;50.922;14.068;2022-09-01T01:03:14;5.03;;;2.90;;
47796;SDS011;33558;50.922;14.068;2022-09-01T01:05:41;4.40;;;2.63;;
47796;SDS011;33558;50.922;14.068;2022-09-01T01:08:13;4.47;;;2.80;;
47796;SDS011;33558;50.922;14.068;2022-09-01T01:10:43;6.65;;;3.13;;
47796;SDS011;33558;50.922;14.068;2022-09-01T01:13:11;4.50;;;2.40;;
47796;SDS011;33558;50.922;14.068;2022-09-01T01:15:40;5.78;;;2.70;;
47796;SDS011;33558;50.922;14.068;2022-09-01T01:18:08;4.15;;;2.60;;
47796;SDS011;33558;50.922;14.068;2022-09-01T01:20:35;6.32;;;2.38;;
47796;SDS011;33558;50.922;14.068;2022-09-01T01:23:22;3.15;;;2.80;;
47796;SDS011;33558;50.922;14.068;2022-09-01T01:25:53;3.80;;;2.90;;
47796;SDS011;33558;50.922;14.068;2022-09-01T01:28:23;5.35;;;2.95;;
47796;SDS011;33558;50.922;14.068;2022-09-01T01:30:53;9.93;;;3.08;;
47796;SDS011;33558;50.922;14.068;2022-09-01T01:33:21;4.60;;;2.70;;
47796;SDS011;33558;50.922;14.068;2022-09-01T01:35:50;5.57;;;3.20;;
47796;SDS011;33558;50.922;14.068;2022-09-01T01:38:17;5.53;;;3.15;;
47796;SDS011;33558;50.922;14.068;2022-09-01T01:40:47;5.38;;;2.63;;
47796;SDS011;33558;50.922;14.068;2022-09-01T01:43:17;3.35;;;2.67;;
47796;SDS011;33558;50.922;14.068;2022-09-01T01:45:46;5.32;;;2.72;;
47796;SDS011;33558;50.922;14.068;2022-09-01T01:48:14;4.25;;;2.67;;
47796;SDS011;33558;50.922;14.068;2022-09-01T01:50:49;5.22;;;2.67;;
47796;SDS011;33558;50.922;14.068;2022-09-01T01:53:16;4.50;;;2.70;;
47796;SDS011;33558;50.922;14.068;2022-09-01T01:55:45;4.45;;;3.13;;
47796;SDS011;33558;50.922;14.068;2022-09-01T01:58:14;3.58;;;2.90;;
47796;SDS011;33558;50.922;14.068;2022-09-01T02:00:44;7.63;;;2.90;;
47796;SDS011;33558;50.922;14.068;2022-09-01T02:03:12;3.50;;;2.65;;
47796;SDS011;33558;50.922;14.068;2022-09-01T02:05:42;4.20;;;3.17;;
47796;SDS011;33558;50.922;14.068;2022-09-01T02:08:10;4.82;;;3.10;;
47796;SDS011;33558;50.922;14.068;2022-09-01T02:10:39;4.10;;;2.72;;
47796;SDS011;33558;50.922;14.068;2022-09-01T02:13:08;5.00;;;3.47;;
47796;SDS011;33558;50.922;14.068;2022-09-01T02:15:41;4.45;;;3.35;;
47796;SDS011;33558;50.922;14.068;2022-09-01T02:18:11;3.78;;;3.10;;
47796;SDS011;33558;50.922;14.068;2022-09-01T02:20:40;5.00;;;3.35;;
47796;SDS011;33558;50.922;14.068;2022-09-01T02:23:08;3.70;;;3.17;;
47796;SDS011;33558;50.922;14.068;2022-09-01T02:25:37;7.60;;;3.75;;
47796;SDS011;33558;50.922;14.068;2022-09-01T02:28:07;6.25;;;3.15;;
47796;SDS011;33558;50.922;14.068;2022-09-01T02:30:40;6.43;;;3.38;;
47796;SDS011;33558;50.922;14.068;2022-09-01T02:33:07;4.57;;;3.20;;
47796;SDS011;33558;50.922;14.068;2022-09-01T02:35:35;7.65;;;3.63;;
47796;SDS011;33558;50.922;14.068;2022-09-01T02:38:02;4.20;;;2.55;;
47796;SDS011;33558;50.922;14.068;2022-09-01T02:40:30;6.85;;;3.60;;
47796;SDS011;33558;50.922;14.068;2022-09-01T02:42:57;3.85;;;3.30;;
47796;SDS011;33558;50.922;14.068;2022-09-01T02:45:24;5.38;;;3.15;;
47796;SDS011;33558;50.922;14.068;2022-09-01T02:47:52;3.10;;;2.80;;
47796;SDS011;33558;50.922;14.068;2022-09-01T02:50:21;5.67;;;3.00;;
47796;SDS011;33558;50.922;14.068;2022-09-01T02:52:50;5.88;;;3.35;;
47796;SDS011;33558;50.922;14.068;2022-09-01T02:55:18;3.92;;;2.97;;
47796;SDS011;33558;50.922;14.068;2022-09-01T02:57:46;6.47;;;3.30;;
47796;SDS011;33558;50.922;14.068;2022-09-01T03:00:14;5.30;;;3.33;;
47796;SDS011;33558;50.922;14.068;2022-09-01T03:02:48;6.23;;;3.03;;
47796;SDS011;33558;50.922;14.068;2022-09-01T03:05:18;6.00;;;3.70;;
47796;SDS011;33558;50.922;14.068;2022-09-01T03:07:53;4.63;;;3.30;;
47796;SDS011;33558;50.922;14.068;2022-09-01T03:10:23;4.00;;;3.25;;
47796;SDS011;33558;50.922;14.068;2022-09-01T03:12:57;4.22;;;3.33;;
47796;SDS011;33558;50.922;14.068;2022-09-01T03:15:25;5.32;;;3.22;;
47796;SDS011;33558;50.922;14.068;2022-09-01T03:17:53;6.90;;;3.63;;
47796;SDS011;33558;50.922;14.068;2022-09-01T03:20:20;4.57;;;3.10;;
47796;SDS011;33558;50.922;14.068;2022-09-01T03:22:47;6.68;;;3.00;;
47796;SDS011;33558;50.922;14.068;2022-09-01T03:25:17;5.47;;;3.20;;
47796;SDS011;33558;50.922;14.068;2022-09-01T03:27:46;5.87;;;2.90;;
47796;SDS011;33558;50.922;14.068;2022-09-01T03:30:13;3.93;;;2.97;;
47796;SDS011;33558;50.922;14.068;2022-09-01T03:32:40;5.43;;;3.28;;
47796;SDS011;33558;50.922;14.068;2022-09-01T03:35:07;3.40;;;2.90;;
47796;SDS011;33558;50.922;14.068;2022-09-01T03:37:34;3.70;;;2.83;;
47796;SDS011;33558;50.922;14.068;2022-09-01T03:40:02;6.43;;;3.50;;
47796;SDS011;33558;50.922;14.068;2022-09-01T03:42:33;4.70;;;3.47;;
47796;SDS011;33558;50.922;14.068;2022-09-01T03:45:00;4.63;;;2.93;;
47796;SDS011;33558;50.922;14.068;2022-09-01T03:47:33;4.03;;;3.00;;
47796;SDS011;33558;50.922;14.068;2022-09-01T03:50:04;4.07;;;3.00;;
47796;SDS011;33558;50.922;14.068;2022-09-01T03:52:32;3.22;;;2.53;;
47796;SDS011;33558;50.922;14.068;2022-09-01T03:55:00;6.53;;;2.90;;
47796;SDS011;33558;50.922;14.068;2022-09-01T03:57:26;4.75;;;2.97;;
47796;SDS011;33558;50.922;14.068;2022-09-01T03:59:55;4.18;;;2.70;;
47796;SDS011;33558;50.922;14.068;2022-09-01T04:02:22;3.50;;;3.00;;
47796;SDS011;33558;50.922;14.068;2022-09-01T04:04:53;3.92;;;3.20;;
47796;SDS011;33558;50.922;14.068;2022-09-01T04:07:24;4.22;;;2.58;;
47796;SDS011;33558;50.922;14.068;2022-09-01T04:09:51;5.95;;;3.22;;
47796;SDS011;33558;50.922;14.068;2022-09-01T04:12:18;3.00;;;2.63;;
47796;SDS011;33558;50.922;14.068;2022-09-01T04:14:49;3.28;;;2.60;;
47796;SDS011;33558;50.922;14.068;2022-09-01T04:17:19;2.92;;;2.47;;
47796;SDS011;33558;50.922;14.068;2022-09-01T04:20:03;3.70;;;2.50;;
47796;SDS011;33558;50.922;14.068;2022-09-01T04:22:33;2.83;;;2.38;;
47796;SDS011;33558;50.922;14.068;2022-09-01T04:25:02;5.15;;;2.72;;
47796;SDS011;33558;50.922;14.068;2022-09-01T04:27:29;4.30;;;2.70;;
47796;SDS011;33558;50.922;14.068;2022-09-01T04:29:56;3.25;;;2.30;;
47796;SDS011;33558;50.922;14.068;2022-09-01T04:32:28;5.00;;;2.25;;
47796;SDS011;33558;50.922;14.068;2022-09-01T04:34:59;3.30;;;2.80;;
47796;SDS011;33558;50.922;14.068;2022-09-01T04:37:26;4.07;;;2.70;;
47796;SDS011;33558;50.922;14.068;2022-09-01T04:39:56;3.03;;;2.22;;
47796;SDS011;33558;50.922;14.068;2022-09-01T04:42:25;5.32;;;2.50;;
47796;SDS011;33558;50.922;14.068;2022-09-01T04:44:54;5.40;;;2.70;;
47796;SDS011;33558;50.922;14.068;2022-09-01T04:47:22;3.63;;;2.55;;
47796;SDS011;33558;50.922;14.068;2022-09-01T04:49:56;3.35;;;2.38;;
47796;SDS011;33558;50.922;14.068;2022-09-01T04:52:26;2.92;;;2.45;;
47796;SDS011;33558;50.922;14.068;2022-09-01T04:54:52;3.97;;;2.53;;
47796;SDS011;33558;50.922;14.068;2022-09-01T04:57:20;5.80;;;2.30;;
47796;SDS011;33558;50.922;14.068;2022-09-01T04:59:47;4.60;;;2.75;;
47796;SDS011;33558;50.922;14.068;2022-09-01T05:02:14;5.28;;;2.30;;
47796;SDS011;33558;50.922;14.068;2022-09-01T05:04:41;4.95;;;2.85;;
47796;SDS011;33558;50.922;14.068;2022-09-01T05:07:12;4.68;;;2.42;;
47796;SDS011;33558;50.922;14.068;2022-09-01T05:09:41;4.25;;;2.80;;
47796;SDS011;33558;50.922;14.068;2022-09-01T05:12:38;4.78;;;2.88;;
47796;SDS011;33558;50.922;14.068;2022-09-01T05:15:06;4.07;;;2.30;;
47796;SDS011;33558;50.922;14.068;2022-09-01T05:17:33;3.97;;;2.33;;
47796;SDS011;33558;50.922;14.068;2022-09-01T05:20:03;3.05;;;2.42;;
47796;SDS011;33558;50.922;14.068;2022-09-01T05:22:32;3.03;;;2.25;;
47796;SDS011;33558;50.922;14.068;2022-09-01T05:25:03;4.68;;;2.47;;
47796;SDS011;33558;50.922;14.068;2022-09-01T05:27:39;3.05;;;2.50;;
47796;SDS011;33558;50.922;14.068;2022-09-01T05:30:09;3.67;;;2.53;;
47796;SDS011;33558;50.922;14.068;2022-09-01T05:32:36;8.63;;;2.63;;
47796;SDS011;33558;50.922;14.068;2022-09-01T05:35:04;2.55;;;2.08;;
47796;SDS011;33558;50.922;14.068;2022-09-01T05:37:34;3.13;;;2.33;;
47796;SDS011;33558;50.922;14.068;2022-09-01T05:40:03;2.60;;;2.20;;
47796;SDS011;33558;50.922;14.068;2022-09-01T05:42:31;6.30;;;2.85;;
47796;SDS011;33558;50.922;14.068;2022-09-01T05:44:58;5.07;;;2.40;;
47796;SDS011;33558;50.922;14.068;2022-09-01T05:47:26;3.15;;;2.47;;
47796;SDS011;33558;50.922;14.068;2022-09-01T05:49:53;12.82;;;2.90;;
47796;SDS011;33558;50.922;14.068;2022-09-01T05:52:20;6.10;;;2.63;;
47796;SDS011;33558;50.922;14.068;2022-09-01T05:54:53;4.28;;;2.60;;
47796;SDS011;33558;50.922;14.068;2022-09-01T05:57:22;2.75;;;2.05;;
47796;SDS011;33558;50.922;14.068;2022-09-01T05:59:49;3.30;;;2.45;;
47796;SDS011;33558;50.922;14.068;2022-09-01T06:02:19;4.95;;;2.55;;
47796;SDS011;33558;50.922;14.068;2022-09-01T06:04:47;3.42;;;2.35;;
47796;SDS011;33558;50.922;14.068;2022-09-01T06:07:21;2.65;;;2.35;;
47796;SDS011;33558;50.922;14.068;2022-09-01T06:09:52;3.10;;;2.50;;
47796;SDS011;33558;50.922;14.068;2022-09-01T06:12:21;3.83;;;2.40;;
47796;SDS011;33558;50.922;14.068;2022-09-01T06:14:49;4.43;;;2.33;;
47796;SDS011;33558;50.922;14.068;2022-09-01T06:17:17;2.75;;;2.42;;
47796;SDS011;33558;50.922;14.068;2022-09-01T06:19:49;6.18;;;2.65;;
47796;SDS011;33558;50.922;14.068;2022-09-01T06:22:17;4.32;;;2.70;;
47796;SDS011;33558;50.922;14.068;2022-09-01T06:24:45;4.72;;;3.50;;
47796;SDS011;33558;50.922;14.068;2022-09-01T06:27:13;4.03;;;2.83;;
47796;SDS011;33558;50.922;14.068;2022-09-01T06:29:42;4.10;;;3.40;;
47796;SDS011;33558;50.922;14.068;2022-09-01T06:32:10;4.93;;;3.40;;
47796;SDS011;33558;50.922;14.068;2022-09-01T06:34:37;3.95;;;2.78;;
47796;SDS011;33558;50.922;14.068;2022-09-01T06:37:06;4.82;;;3.33;;
47796;SDS011;33558;50.922;14.068;2022-09-01T06:39:34;4.88;;;3.10;;
47796;SDS011;33558;50.922;14.068;2022-09-01T06:42:01;6.78;;;4.20;;
47796;SDS011;33558;50.922;14.068;2022-09-01T06:44:40;7.15;;;3.72;;
47796;SDS011;33558;50.922;14.068;2022-09-01T06:47:07;6.13;;;3.97;;
47796;SDS011;33558;50.922;14.068;2022-09-01T06:49:34;7.05;;;3.88;;
47796;SDS011;33558;50.922;14.068;2022-09-01T06:52:07;11.23;;;5.53;;
47796;SDS011;33558;50.922;14.068;2022-09-01T06:54:35;9.15;;;5.35;;
47796;SDS011;33558;50.922;14.068;2022-09-01T06:57:03;9.00;;;5.80;;
47796;SDS011;33558;50.922;14.068;2022-09-01T06:59:31;6.35;;;5.68;;
47796;SDS011;33558;50.922;14.068;2022-09-01T07:02:00;7.05;;;5.38;;
47796;SDS011;33558;50.922;14.068;2022-09-01T07:04:40;9.77;;;5.65;;
47796;SDS011;33558;50.922;14.068;2022-09-01T07:07:07;7.07;;;4.72;;
47796;SDS011;33558;50.922;14.068;2022-09-01T07:12:32;8.52;;;4.90;;
47796;SDS011;33558;50.922;14.068;2022-09-01T07:15:00;5.82;;;5.13;;
47796;SDS011;33558;50.922;14.068;2022-09-01T07:17:28;9.30;;;6.20;;
47796;SDS011;33558;50.922;14.068;2022-09-01T07:19:55;9.52;;;5.63;;
47796;SDS011;33558;50.922;14.068;2022-09-01T07:22:23;8.75;;;5.78;;
47796;SDS011;33558;50.922;14.068;2022-09-01T07:24:50;8.23;;;6.18;;
47796;SDS011;33558;50.922;14.068;2022-09-01T07:27:33;8.40;;;5.68;;
47796;SDS011;33558;50.922;14.068;2022-09-01T07:29:59;8.45;;;5.70;;
47796;SDS011;33558;50.922;14.068;2022-09-01T07:32:27;9.95;;;6.57;;
47796;SDS011;33558;50.922;14.068;2022-09-01T07:34:56;8.18;;;5.57;;
47796;SDS011;33558;50.922;14.068;2022-09-01T07:37:23;6.80;;;6.10;;
47796;SDS011;33558;50.922;14.068;2022-09-01T07:39:51;7.82;;;5.80;;
47796;SDS011;33558;50.922;14.068;2022-09-01T07:42:29;8.02;;;5.20;;
47796;SDS011;33558;50.922;14.068;2022-09-01T07:45:15;10.33;;;5.87;;
47796;SDS011;33558;50.922;14.068;2022-09-01T07:47:54;12.15;;;5.72;;
47796;SDS011;33558;50.922;14.068;2022-09-01T07:50:21;10.02;;;5.80;;
47796;SDS011;33558;50.922;14.068;2022-09-01T07:52:51;8.93;;;5.10;;
47796;SDS011;33558;50.922;14.068;2022-09-01T07:55:19;8.68;;;5.70;;
47796;SDS011;33558;50.922;14.068;2022-09-01T07:57:46;9.45;;;5.70;;
47796;SDS011;33558;50.922;14.068;2022-09-01T08:00:14;10.65;;;5.50;;
47796;SDS011;33558;50.922;14.068;2022-09-01T08:02:47;9.50;;;5.90;;
47796;SDS011;33558;50.922;14.068;2022-09-01T08:05:17;6.47;;;4.72;;
47796;SDS011;33558;50.922;14.068;2022-09-01T08:07:47;7.78;;;4.80;;
47796;SDS011;33558;50.922;14.068;2022-09-01T08:10:15;10.90;;;4.63;;
47796;SDS011;33558;50.922;14.068;2022-09-01T08:12:42;6.57;;;5.00;;
47796;SDS011;33558;50.922;14.068;2022-09-01T08:15:09;6.30;;;4.38;;
47796;SDS011;33558;50.922;14.068;2022-09-01T08:17:38;7.72;;;4.30;;
47796;SDS011;33558;50.922;14.068;2022-09-01T08:20:09;7.20;;;4.60;;
47796;SDS011;33558;50.922;14.068;2022-09-01T08:22:51;7.85;;;4.10;;
47796;SDS011;33558;50.922;14.068;2022-09-01T08:25:29;6.75;;;3.97;;
47796;SDS011;33558;50.922;14.068;2022-09-01T08:27:57;6.63;;;4.00;;
47796;SDS011;33558;50.922;14.068;2022-09-01T08:30:24;6.03;;;3.75;;
47796;SDS011;33558;50.922;14.068;2022-09-01T08:32:51;5.65;;;3.83;;
47796;SDS011;33558;50.922;14.068;2022-09-01T08:35:18;6.32;;;3.80;;
47796;SDS011;33558;50.922;14.068;2022-09-01T08:37:45;6.53;;;3.33;;
47796;SDS011;33558;50.922;14.068;2022-09-01T08:40:14;6.43;;;3.72;;
47796;SDS011;33558;50.922;14.068;2022-09-01T08:42:47;5.80;;;3.17;;
47796;SDS011;33558;50.922;14.068;2022-09-01T08:45:19;11.30;;;3.85;;
47796;SDS011;33558;50.922;14.068;2022-09-01T08:47:47;5.55;;;3.83;;
47796;SDS011;33558;50.922;14.068;2022-09-01T08:50:18;10.95;;;3.38;;
47796;SDS011;33558;50.922;14.068;2022-09-01T08:53:11;3.75;;;3.00;;
47796;SDS011;33558;50.922;14.068;2022-09-01T08:55:48;5.85;;;2.75;;
47796;SDS011;33558;50.922;14.068;2022-09-01T08:58:17;8.85;;;3.22;;
47796;SDS011;33558;50.922;14.068;2022-09-01T09:01:23;11.82;;;3.42;;
47796;SDS011;33558;50.922;14.068;2022-09-01T09:03:58;5.95;;;3.33;;
47796;SDS011;33558;50.922;14.068;2022-09-01T09:06:32;5.38;;;2.70;;
47796;SDS011;33558;50.922;14.068;2022-09-01T09:09:02;6.15;;;2.80;;
47796;SDS011;33558;50.922;14.068;2022-09-01T09:14:44;5.30;;;2.60;;
47796;SDS011;33558;50.922;14.068;2022-09-01T09:17:17;5.22;;;2.90;;
47796;SDS011;33558;50.922;14.068;2022-09-01T09:19:46;5.90;;;3.35;;
47796;SDS011;33558;50.922;14.068;2022-09-01T09:22:14;8.20;;;3.30;;
47796;SDS011;33558;50.922;14.068;2022-09-01T09:24:43;5.72;;;2.60;;
47796;SDS011;33558;50.922;14.068;2022-09-01T09:27:15;4.40;;;2.67;;
47796;SDS011;33558;50.922;14.068;2022-09-01T09:29:42;5.22;;;2.40;;
47796;SDS011;33558;50.922;14.068;2022-09-01T09:32:10;5.75;;;2.40;;
47796;SDS011;33558;50.922;14.068;2022-09-01T09:34:37;4.30;;;2.58;;
47796;SDS011;33558;50.922;14.068;2022-09-01T09:37:16;5.03;;;2.30;;
47796;SDS011;33558;50.922;14.068;2022-09-01T09:39:50;5.15;;;2.65;;
47796;SDS011;33558;50.922;14.068;2022-09-01T09:42:27;6.50;;;2.47;;
47796;SDS011;33558;50.922;14.068;2022-09-01T09:44:54;4.25;;;2.15;;
47796;SDS011;33558;50.922;14.068;2022-09-01T09:47:34;3.90;;;2.10;;
47796;SDS011;33558;50.922;14.068;2022-09-01T09:50:10;5.78;;;2.60;;
47796;SDS011;33558;50.922;14.068;2022-09-01T09:52:43;2.92;;;2.20;;
47796;SDS011;33558;50.922;14.068;2022-09-01T09:57:58;5.35;;;2.15;;
47796;SDS011;33558;50.922;14.068;2022-09-01T10:00:27;6.40;;;2.33;;
47796;SDS011;33558;50.922;14.068;2022-09-01T10:02:57;6.10;;;2.55;;
47796;SDS011;33558;50.922;14.068;2022-09-01T10:05:36;5.00;;;2.40;;
47796;SDS011;33558;50.922;14.068;2022-09-01T10:08:04;4.22;;;1.98;;
47796;SDS011;33558;50.922;14.068;2022-09-01T10:10:36;4.35;;;2.30;;
47796;SDS011;33558;50.922;14.068;2022-09-01T10:13:07;3.97;;;2.13;;
47796;SDS011;33558;50.922;14.068;2022-09-01T10:15:35;6.05;;;2.35;;
47796;SDS011;33558;50.922;14.068;2022-09-01T10:18:05;2.90;;;2.03;;
47796;SDS011;33558;50.922;14.068;2022-09-01T10:20:36;3.40;;;2.13;;
47796;SDS011;33558;50.922;14.068;2022-09-01T10:23:03;3.67;;;2.10;;
47796;SDS011;33558;50.922;14.068;2022-09-01T10:25:30;3.40;;;2.15;;
47796;SDS011;33558;50.922;14.068;2022-09-01T10:28:01;6.00;;;2.35;;
47796;SDS011;33558;50.922;14.068;2022-09-01T10:30:31;4.90;;;2.00;;
47796;SDS011;33558;50.922;14.068;2022-09-01T10:32:58;6.50;;;2.40;;
47796;SDS011;33558;50.922;14.068;2022-09-01T10:35:28;3.42;;;2.00;;
47796;SDS011;33558;50.922;14.068;2022-09-01T10:37:55;5.70;;;2.40;;
47796;SDS011;33558;50.922;14.068;2022-09-01T10:40:33;5.45;;;2.10;;
47796;SDS011;33558;50.922;14.068;2022-09-01T10:43:24;5.28;;;2.22;;
47796;SDS011;33558;50.922;14.068;2022-09-01T10:45:55;4.38;;;2.00;;
47796;SDS011;33558;50.922;14.068;2022-09-01T10:48:23;4.03;;;2.10;;
47796;SDS011;33558;50.922;14.068;2022-09-01T10:53:56;2.30;;;1.70;;
47796;SDS011;33558;50.922;14.068;2022-09-01T10:56:25;3.17;;;2.00;;
47796;SDS011;33558;50.922;14.068;2022-09-01T10:59:03;4.20;;;1.80;;
47796;SDS011;33558;50.922;14.068;2022-09-01T11:07:38;2.95;;;1.80;;
47796;SDS011;33558;50.922;14.068;2022-09-01T11:10:08;3.25;;;2.00;;
47796;SDS011;33558;50.922;14.068;2022-09-01T11:12:43;3.05;;;1.88;;
47796;SDS011;33558;50.922;14.068;2022-09-01T11:18:02;3.88;;;1.90;;
47796;SDS011;33558;50.922;14.068;2022-09-01T11:20:35;5.75;;;2.08;;
47796;SDS011;33558;50.922;14.068;2022-09-01T11:23:04;7.15;;;1.85;;
47796;SDS011;33558;50.922;14.068;2022-09-01T11:25:35;4.53;;;2.22;;
47796;SDS011;33558;50.922;14.068;2022-09-01T11:28:08;5.55;;;1.75;;
47796;SDS011;33558;50.922;14.068;2022-09-01T11:30:52;3.65;;;1.88;;
47796;SDS011;33558;50.922;14.068;2022-09-01T11:36:12;2.70;;;1.52;;
47796;SDS011;33558;50.922;14.068;2022-09-01T11:38:47;6.20;;;2.00;;
47796;SDS011;33558;50.922;14.068;2022-09-01T11:41:19;3.00;;;1.42;;
47796;SDS011;33558;50.922;14.068;2022-09-01T11:43:48;2.90;;;1.50;;
47796;SDS011;33558;50.922;14.068;2022-09-01T11:46:18;5.10;;;1.67;;
47796;SDS011;33558;50.922;14.068;2022-09-01T11:48:47;4.38;;;1.83;;
47796;SDS011;33558;50.922;14.068;2022-09-01T11:51:14;5.78;;;1.75;;
47796;SDS011;33558;50.922;14.068;2022-09-01T11:53:41;3.13;;;1.55;;
47796;SDS011;33558;50.922;14.068;2022-09-01T11:56:14;1.98;;;1.23;;
47796;SDS011;33558;50.922;14.068;2022-09-01T11:58:42;3.45;;;1.60;;
47796;SDS011;33558;50.922;14.068;2022-09-01T12:01:13;4.30;;;1.52;;
47796;SDS011;33558;50.922;14.068;2022-09-01T12:03:41;3.25;;;1.40;;
47796;SDS011;33558;50.922;14.068;2022-09-01T12:06:09;1.98;;;1.20;;
47796;SDS011;33558;50.922;14.068;2022-09-01T12:08:38;2.25;;;1.40;;
47796;SDS011;33558;50.922;14.068;2022-09-01T12:11:06;3.08;;;1.10;;
47796;SDS011;33558;50.922;14.068;2022-09-01T12:13:36;2.58;;;1.50;;
47796;SDS011;33558;50.922;14.068;2022-09-01T12:16:04;3.47;;;1.33;;
47796;SDS011;33558;50.922;14.068;2022-09-01T12:18:33;6.40;;;1.13;;
47796;SDS011;33558;50.922;14.068;2022-09-01T12:21:02;1.92;;;1.10;;
47796;SDS011;33558;50.922;14.068;2022-09-01T12:23:32;5.22;;;1.13;;
47796;SDS011;33558;50.922;14.068;2022-09-01T12:26:01;2.60;;;1.00;;
47796;SDS011;33558;50.922;14.068;2022-09-01T12:28:30;1.55;;;1.15;;
47796;SDS011;33558;50.922;14.068;2022-09-01T12:30:59;2.03;;;1.20;;
47796;SDS011;33558;50.922;14.068;2022-09-01T12:33:28;1.58;;;1.10;;
47796;SDS011;33558;50.922;14.068;2022-09-01T12:38:46;1.80;;;1.05;;
47796;SDS011;33558;50.922;14.068;2022-09-01T12:41:31;2.70;;;1.10;;
47796;SDS011;33558;50.922;14.068;2022-09-01T12:46:46;1.70;;;0.88;;
47796;SDS011;33558;50.922;14.068;2022-09-01T12:49:16;2.20;;;1.20;;
47796;SDS011;33558;50.922;14.068;2022-09-01T12:51:44;2.95;;;0.90;;
47796;SDS011;33558;50.922;14.068;2022-09-01T12:54:11;4.47;;;1.10;;
47796;SDS011;33558;50.922;14.068;2022-09-01T12:56:38;2.65;;;1.20;;
47796;SDS011;33558;50.922;14.068;2022-09-01T12:59:07;3.92;;;0.93;;
47796;SDS011;33558;50.922;14.068;2022-09-01T13:01:37;3.33;;;1.20;;
47796;SDS011;33558;50.922;14.068;2022-09-01T13:04:11;4.05;;;1.00;;
47796;SDS011;33558;50.922;14.068;2022-09-01T13:06:40;1.73;;;1.00;;
47796;SDS011;33558;50.922;14.068;2022-09-01T13:09:07;3.38;;;1.00;;
47796;SDS011;33558;50.922;14.068;2022-09-01T13:11:33;1.60;;;0.80;;
47796;SDS011;33558;50.922;14.068;2022-09-01T13:14:00;2.72;;;1.05;;
47796;SDS011;33558;50.922;14.068;2022-09-01T13:16:27;1.83;;;1.10;;
47796;SDS011;33558;50.922;14.068;2022-09-01T13:18:53;3.10;;;1.35;;
47796;SDS011;33558;50.922;14.068;2022-09-01T13:21:21;1.88;;;1.00;;
47796;SDS011;33558;50.922;14.068;2022-09-01T13:23:48;1.80;;;1.10;;
47796;SDS011;33558;50.922;14.068;2022-09-01T13:26:15;2.42;;;1.05;;
47796;SDS011;33558;50.922;14.068;2022-09-01T13:28:42;4.10;;;0.98;;
47796;SDS011;33558;50.922;14.068;2022-09-01T13:31:09;4.57;;;1.20;;
47796;SDS011;33558;50.922;14.068;2022-09-01T13:33:36;2.83;;;1.15;;
47796;SDS011;33558;50.922;14.068;2022-09-01T13:36:03;1.80;;;0.90;;
47796;SDS011;33558;50.922;14.068;2022-09-01T13:38:31;1.30;;;0.90;;
47796;SDS011;33558;50.922;14.068;2022-09-01T13:40:58;2.35;;;1.10;;
47796;SDS011;33558;50.922;14.068;2022-09-01T13:43:25;1.30;;;1.02;;
47796;SDS011;33558;50.922;14.068;2022-09-01T13:45:52;3.45;;;1.00;;
47796;SDS011;33558;50.922;14.068;2022-09-01T13:48:19;2.42;;;1.02;;
47796;SDS011;33558;50.922;14.068;2022-09-01T13:50:47;2.88;;;1.00;;
47796;SDS011;33558;50.922;14.068;2022-09-01T13:53:15;1.77;;;1.10;;
47796;SDS011;33558;50.922;14.068;2022-09-01T13:55:43;3.38;;;1.13;;
47796;SDS011;33558;50.922;14.068;2022-09-01T13:58:09;3.10;;;1.10;;
47796;SDS011;33558;50.922;14.068;2022-09-01T14:00:37;3.55;;;1.25;;
47796;SDS011;33558;50.922;14.068;2022-09-01T14:03:05;2.72;;;1.00;;
47796;SDS011;33558;50.922;14.068;2022-09-01T14:05:34;1.42;;;0.90;;
47796;SDS011;33558;50.922;14.068;2022-09-01T14:08:02;1.58;;;1.00;;
47796;SDS011;33558;50.922;14.068;2022-09-01T14:10:30;4.13;;;0.95;;
47796;SDS011;33558;50.922;14.068;2022-09-01T14:12:58;2.20;;;0.90;;
47796;SDS011;33558;50.922;14.068;2022-09-01T14:15:25;1.33;;;0.85;;
47796;SDS011;33558;50.922;14.068;2022-09-01T14:17:53;2.45;;;0.98;;
47796;SDS011;33558;50.922;14.068;2022-09-01T14:20:22;2.20;;;1.10;;
47796;SDS011;33558;50.922;14.068;2022-09-01T14:22:49;1.63;;;0.82;;
47796;SDS011;33558;50.922;14.068;2022-09-01T14:25:17;1.83;;;0.80;;
47796;SDS011;33558;50.922;14.068;2022-09-01T14:27:45;3.50;;;0.95;;
47796;SDS011;33558;50.922;14.068;2022-09-01T14:30:16;3.08;;;1.08;;
47796;SDS011;33558;50.922;14.068;2022-09-01T14:32:44;2.55;;;1.13;;
47796;SDS011;33558;50.922;14.068;2022-09-01T14:35:11;2.35;;;0.90;;
47796;SDS011;33558;50.922;14.068;2022-09-01T14:37:39;1.85;;;0.90;;
47796;SDS011;33558;50.922;14.068;2022-09-01T14:40:06;1.30;;;0.90;;
47796;SDS011;33558;50.922;14.068;2022-09-01T14:42:34;3.25;;;1.33;;
47796;SDS011;33558;50.922;14.068;2022-09-01T14:45:02;1.65;;;0.77;;
47796;SDS011;33558;50.922;14.068;2022-09-01T14:47:30;1.98;;;0.98;;
47796;SDS011;33558;50.922;14.068;2022-09-01T14:49:57;1.25;;;0.80;;
47796;SDS011;33558;50.922;14.068;2022-09-01T14:52:24;2.47;;;0.80;;
47796;SDS011;33558;50.922;14.068;2022-09-01T14:54:51;1.27;;;0.65;;
47796;SDS011;33558;50.922;14.068;2022-09-01T14:57:18;5.43;;;1.08;;
47796;SDS011;33558;50.922;14.068;2022-09-01T14:59:44;3.35;;;0.70;;
47796;SDS011;33558;50.922;14.068;2022-09-01T15:02:12;1.25;;;0.77;;
47796;SDS011;33558;50.922;14.068;2022-09-01T15:04:40;1.80;;;0.70;;
47796;SDS011;33558;50.922;14.068;2022-09-01T15:07:07;1.17;;;0.55;;
47796;SDS011;33558;50.922;14.068;2022-09-01T15:09:34;2.55;;;0.52;;
47796;SDS011;33558;50.922;14.068;2022-09-01T15:12:01;3.25;;;0.60;;
47796;SDS011;33558;50.922;14.068;2022-09-01T15:14:28;2.33;;;0.93;;
47796;SDS011;33558;50.922;14.068;2022-09-01T15:16:57;2.13;;;0.70;;